• Join FlightAware (Why Join?)
  • Login
  • US Flag 
05:46AM EST


 

Airport Tracker/Info


-or-


 

Live Flight TrackerFlight Track Log ✈ CPT8773 ✈ 26-Apr-2013 ✈ KCPR - KCOD

Flight Track Log - Related Links

Times and Time Zones

All times are in EDT time to prevent confusion due to time zone crossing. See the CPT8773 flight status page for this flight to view local times or setup timezone preferences in your user account.

Time Position Orientation Groundspeed Altitude Reporting Facility
EDT Latitude Longitude Course Direction KTS MPH feet Rate Location/Type
09:00AM 42.9514 -106.5336 45° Northeast 124 143 7,200  Level Salt Lake Center
09:01AM 42.9822 -106.5469 342° North 123 142 7,800 540 Climbing Denver Center
09:02AM 43.0150 -106.5511 355° North 121 139 8,400 540 Climbing Denver Center
09:03AM 43.0528 -106.5600 350° North 123 142 9,000 540 Climbing Denver Center
09:04AM 42.9189 -106.4493 45° Northeast  Level FlightAware Approximate
09:04AM 43.0844 -106.5667 351° North 122 140 9,500  Level Denver Center
09:05AM 42.9462 -106.4116 45° Northeast  Level FlightAware Approximate
09:05AM 43.1167 -106.5733 351° North 121 139 9,900  Level Denver Center
09:06AM 43.1533 -106.5800 352° North 121 139 10,500 540 Climbing Denver Center
09:07AM 43.1825 -106.5889 347° North 117 135 11,000 480 Climbing Denver Center
09:08AM 43.2136 -106.5967 350° North 118 136 11,500 420 Climbing Denver Center
09:09AM 43.2525 -106.6050 351° North 125 144 11,900 240 Climbing Denver Center
09:10AM 43.2886 -106.6136 350° North 134 154 12,100  Climbing Denver Center
09:11AM 43.3125 -106.6550 308° West 159 183 12,000 -60 Descending Denver Center
09:12AM 43.3222 -106.7153 283° West 147 169 12,000  Level Denver Center
09:13AM 43.3447 -106.7611 304° West 149 171 12,000  Level Denver Center
09:14AM 43.3733 -106.8086 310° West 145 167 12,000  Level Denver Center
09:15AM 43.4003 -106.8611 305° West 150 173 12,000  Level Denver Center
09:16AM 43.4247 -106.9056 307° West 145 167 12,000  Level Denver Center
09:17AM 43.4469 -106.9506 304° West 148 170 12,000  Level Denver Center
09:18AM 43.4736 -107.0003 306° West 145 167 12,000  Level Denver Center
09:19AM 43.4972 -107.0453 306° West 150 173 12,000  Level Denver Center
09:20AM 43.5211 -107.0900 306° West 151 174 12,000  Level Denver Center
09:21AM 43.5378 -107.1281 301° West 147 169 12,000  Level Salt Lake Center
09:22AM 43.5642 -107.1769 307° West 143 165 12,000  Level Salt Lake Center
09:23AM 43.5864 -107.2194 306° West 143 165 12,000  Level Salt Lake Center
09:24AM 43.6114 -107.2600 310° West 144 166 12,000  Level Salt Lake Center
09:25AM 43.6361 -107.3103 304° West 142 163 12,000  Level Salt Lake Center
09:26AM 43.6586 -107.3519 307° West 142 163 12,000  Level Salt Lake Center
09:27AM 43.6808 -107.3933 307° West 141 162 12,000  Level Salt Lake Center
09:28AM 43.7067 -107.4433 306° West 141 162 12,000  Level Salt Lake Center
09:29AM 43.7292 -107.4844 307° West 141 162 12,000  Level Salt Lake Center
09:30AM 43.7511 -107.5267 306° West 141 162 12,000  Level Salt Lake Center
09:31AM 43.7761 -107.5756 305° West 140 161 12,000  Level Salt Lake Center
09:32AM 43.7983 -107.6172 306° West 140 161 12,000  Level Salt Lake Center
09:33AM 43.8256 -107.6675 307° West 143 165 12,000  Level Salt Lake Center
09:34AM 43.8483 -107.7111 306° West 145 167 12,000  Level Salt Lake Center
09:35AM 43.8711 -107.7547 306° West 145 167 12,000  Level Salt Lake Center
09:36AM 43.8983 -107.8056 307° West 146 168 12,000  Level Salt Lake Center
09:37AM 43.9203 -107.8503 304° West 147 169 12,000  Level Salt Lake Center
09:38AM 43.9433 -107.8928 307° West 146 168 12,000  Level Salt Lake Center
09:39AM 43.9692 -107.9444 305° West 145 167 12,000  Level Salt Lake Center
09:40AM 43.9919 -107.9867 307° West 144 166 12,000  Level Salt Lake Center
09:41AM 44.0139 -108.0297 305° West 143 165 12,000  Level Salt Lake Center
09:42AM 44.0403 -108.0792 307° West 143 165 12,000  Level Salt Lake Center
09:43AM 44.0619 -108.1219 305° West 142 163 12,000  Level Salt Lake Center
09:44AM 44.0881 -108.1714 306° West 142 163 12,000  Level Salt Lake Center
09:45AM 44.1100 -108.2136 306° West 141 162 12,000  Level Salt Lake Center
09:46AM 44.1311 -108.2561 305° West 140 161 12,000  Level Salt Lake Center
09:47AM 44.1569 -108.3069 305° West 142 163 12,000  Level Salt Lake Center
09:48AM 44.1789 -108.3494 306° West 141 162 12,000  Level Salt Lake Center
09:49AM 44.2008 -108.3917 306° West 141 162 12,000  Level Salt Lake Center
09:50AM 44.2253 -108.4400 305° West 139 160 12,000  Level Salt Lake Center
09:51AM 44.2458 -108.4831 304° West 138 159 12,000  Level Salt Lake Center
09:52AM 44.2678 -108.5253 306° West 139 160 12,000  Level Salt Lake Center
09:53AM 44.2939 -108.5764 306° West 141 162 12,000 -240 Level Salt Lake Center
09:54AM 44.3178 -108.6219 306° West 145 167 11,600 -480 Descending Salt Lake Center
09:55AM 44.3469 -108.6808 305° West 155 178 11,100 -480 Descending Salt Lake Center
09:56AM 44.3728 -108.7328 305° West 163 188 10,700 -420 Descending Salt Lake Center